Time,TemperatureF,DewpointF,PressureIn,WindDirection,WindDirectionDegrees,WindSpeedMPH,WindSpeedGustMPH,Humidity,HourlyPrecipIn,Conditions,Clouds,dailyrainin,SoftwareType,DateUTC
2013-07-09 00:02:00,69.1,68.0,29.92,SW,228,0.0,0.0,97,0.00,,,0.16,weatherlink.com 1.10,2013-07-09 04:02:00,
2013-07-09 00:17:00,69.4,69.0,29.92,SW,228,0.0,0.0,98,0.00,,,0.16,weatherlink.com 1.10,2013-07-09 04:17:00,
2013-07-09 00:32:00,69.3,69.0,29.92,SW,228,0.0,0.0,98,0.00,,,0.16,weatherlink.com 1.10,2013-07-09 04:32:00,
2013-07-09 00:47:00,69.4,69.0,29.92,SW,228,0.0,0.0,98,0.00,,,0.00,weatherlink.com 1.10,2013-07-09 04:47:00,
2013-07-09 01:02:00,69.5,69.0,29.92,SW,228,0.0,0.0,98,0.00,,,0.00,weatherlink.com 1.10,2013-07-09 05:02:00,
2013-07-09 01:17:00,68.9,68.0,29.91,SW,228,0.0,0.0,98,0.00,,,0.00,weatherlink.com 1.10,2013-07-09 05:17:00,
2013-07-09 01:32:00,68.6,68.0,29.91,SW,228,0.0,0.0,98,0.00,,,0.00,weatherlink.com 1.10,2013-07-09 05:32:00,
2013-07-09 01:47:00,68.9,68.0,29.91,SW,228,0.0,0.0,98,0.00,,,0.00,weatherlink.com 1.10,2013-07-09 05:47:00,
2013-07-09 02:02:00,68.8,68.0,29.91,SW,228,0.0,1.0,98,0.00,,,0.00,weatherlink.com 1.10,2013-07-09 06:02:00,
2013-07-09 02:17:00,69.0,69.0,29.91,SW,228,0.0,0.0,98,0.00,,,0.00,weatherlink.com 1.10,2013-07-09 06:17:00,
2013-07-09 02:32:00,69.3,69.0,29.91,SW,228,0.0,0.0,98,0.00,,,0.00,weatherlink.com 1.10,2013-07-09 06:32:00,
2013-07-09 02:47:00,69.2,69.0,29.90,SW,228,0.0,0.0,98,0.00,,,0.00,weatherlink.com 1.10,2013-07-09 06:47:00,
2013-07-09 03:02:00,69.5,69.0,29.91,SW,228,0.0,0.0,99,0.00,,,0.00,weatherlink.com 1.10,2013-07-09 07:02:00,
2013-07-09 03:17:00,69.6,69.0,29.91,SW,228,0.0,0.0,99,0.00,,,0.00,weatherlink.com 1.10,2013-07-09 07:17:00,
2013-07-09 03:32:00,69.8,70.0,29.92,SW,228,0.0,0.0,99,0.00,,,0.00,weatherlink.com 1.10,2013-07-09 07:32:00,
2013-07-09 03:47:00,70.0,70.0,29.92,SW,228,0.0,0.0,99,0.00,,,0.00,weatherlink.com 1.10,2013-07-09 07:47:00,
2013-07-09 04:02:00,70.2,70.0,29.92,NNE,26,0.0,2.0,98,0.00,,,0.00,weatherlink.com 1.10,2013-07-09 08:02:00,
2013-07-09 04:17:00,70.2,70.0,29.92,NW,321,1.0,2.0,98,0.00,,,0.00,weatherlink.com 1.10,2013-07-09 08:17:00,
2013-07-09 04:32:00,70.2,70.0,29.92,NW,306,0.0,1.0,98,0.00,,,0.00,weatherlink.com 1.10,2013-07-09 08:32:00,
2013-07-09 04:47:00,70.3,70.0,29.92,NW,307,0.0,1.0,98,0.00,,,0.00,weatherlink.com 1.10,2013-07-09 08:47:00,
2013-07-09 05:02:00,70.3,70.0,29.92,NNW,347,0.0,1.0,98,0.00,,,0.00,weatherlink.com 1.10,2013-07-09 09:02:00,
2013-07-09 05:17:00,70.3,70.0,29.92,WSW,256,1.0,1.0,98,0.00,,,0.00,weatherlink.com 1.10,2013-07-09 09:17:00,
2013-07-09 05:32:00,70.1,69.0,29.92,WSW,256,0.0,1.0,97,0.00,,,0.00,weatherlink.com 1.10,2013-07-09 09:32:00,
2013-07-09 05:47:00,69.6,69.0,29.92,North,8,1.0,2.0,96,0.00,,,0.00,weatherlink.com 1.10,2013-07-09 09:47:00,
2013-07-09 06:02:00,69.3,68.0,29.92,NNW,341,0.0,1.0,96,0.00,,,0.00,weatherlink.com 1.10,2013-07-09 10:02:00,
2013-07-09 06:17:00,69.0,68.0,29.93,NNW,342,0.0,0.0,97,0.00,,,0.00,weatherlink.com 1.10,2013-07-09 10:17:00,
2013-07-09 06:32:00,68.8,68.0,29.92,WSW,252,0.0,0.0,97,0.00,,,0.00,weatherlink.com 1.10,2013-07-09 10:32:00,
2013-07-09 06:47:00,68.8,68.0,29.93,WSW,252,0.0,0.0,97,0.00,,,0.00,weatherlink.com 1.10,2013-07-09 10:47:00,
2013-07-09 07:02:00,69.1,68.0,29.92,WSW,252,0.0,0.0,96,0.00,,,0.00,weatherlink.com 1.10,2013-07-09 11:02:00,
2013-07-09 07:17:00,69.4,68.0,29.93,NNE,26,0.0,1.0,95,0.00,,,0.00,weatherlink.com 1.10,2013-07-09 11:17:00,
2013-07-09 07:32:00,69.9,68.0,29.94,NNE,21,0.0,1.0,94,0.00,,,0.00,weatherlink.com 1.10,2013-07-09 11:32:00,
2013-07-09 07:47:00,70.1,68.0,29.93,NNE,21,0.0,0.0,93,0.00,,,0.00,weatherlink.com 1.10,2013-07-09 11:47:00,
2013-07-09 08:02:00,70.2,68.0,29.93,NNE,21,0.0,1.0,92,0.00,,,0.00,weatherlink.com 1.10,2013-07-09 12:02:00,
2013-07-09 08:17:00,70.7,68.0,29.94,NNE,22,0.0,0.0,91,0.00,,,0.00,weatherlink.com 1.10,2013-07-09 12:17:00,
2013-07-09 08:32:00,70.8,68.0,29.93,NNW,337,0.0,1.0,91,0.00,,,0.00,weatherlink.com 1.10,2013-07-09 12:32:00,
2013-07-09 08:47:00,71.0,68.0,29.94,West,262,1.0,3.0,89,0.00,,,0.00,weatherlink.com 1.10,2013-07-09 12:47:00,
2013-07-09 09:02:00,71.9,68.0,29.94,NW,314,0.0,0.0,87,0.00,,,0.00,weatherlink.com 1.10,2013-07-09 13:02:00,
2013-07-09 09:17:00,72.7,69.0,29.93,SE,139,0.0,1.0,88,0.00,,,0.00,weatherlink.com 1.10,2013-07-09 13:17:00,
2013-07-09 09:32:00,73.4,69.0,29.93,SW,222,0.0,2.0,85,0.00,,,0.00,weatherlink.com 1.10,2013-07-09 13:32:00,
2013-07-09 09:47:00,73.5,69.0,29.93,NNW,333,2.0,3.0,86,0.00,,,0.00,weatherlink.com 1.10,2013-07-09 13:47:00,
2013-07-09 10:03:00,74.2,69.0,29.93,SSW,211,1.0,4.0,84,0.00,,,0.00,weatherlink.com 1.10,2013-07-09 14:03:00,
2013-07-09 10:18:00,75.2,69.0,29.93,North,5,0.0,2.0,82,0.00,,,0.00,weatherlink.com 1.10,2013-07-09 14:18:00,
2013-07-09 10:33:00,76.8,70.0,29.93,SE,127,0.0,2.0,80,0.00,,,0.00,weatherlink.com 1.10,2013-07-09 14:33:00,
2013-07-09 10:48:00,77.5,70.0,29.93,SW,226,2.0,5.0,77,0.00,,,0.00,weatherlink.com 1.10,2013-07-09 14:48:00,
2013-07-09 11:03:00,77.3,71.0,29.92,NW,321,0.0,3.0,80,0.00,,,0.00,weatherlink.com 1.10,2013-07-09 15:03:00,
2013-07-09 11:18:00,78.3,71.0,29.92,SW,235,2.0,5.0,78,0.00,,,0.00,weatherlink.com 1.10,2013-07-09 15:18:00,
2013-07-09 11:33:00,80.2,72.0,29.92,SSW,208,0.0,2.0,76,0.00,,,0.00,weatherlink.com 1.10,2013-07-09 15:33:00,
2013-07-09 11:48:00,80.6,72.0,29.91,WSW,249,0.0,4.0,75,0.00,,,0.00,weatherlink.com 1.10,2013-07-09 15:48:00,
2013-07-09 12:03:00,81.3,72.0,29.91,NW,317,1.0,5.0,73,0.00,,,0.00,weatherlink.com 1.10,2013-07-09 16:03:00,
2013-07-09 12:18:00,81.2,71.0,29.90,SW,228,3.0,7.0,72,0.00,,,0.00,weatherlink.com 1.10,2013-07-09 16:18:00,
2013-07-09 12:33:00,82.5,71.0,29.90,WSW,257,0.0,5.0,69,0.00,,,0.00,weatherlink.com 1.10,2013-07-09 16:33:00,
2013-07-09 12:48:00,83.5,73.0,29.90,SW,218,3.0,5.0,70,0.00,,,0.00,weatherlink.com 1.10,2013-07-09 16:48:00,
2013-07-09 13:03:00,83.6,72.0,29.90,West,266,0.0,6.0,68,0.00,,,0.00,weatherlink.com 1.10,2013-07-09 17:03:00,
2013-07-09 13:18:00,84.3,72.0,29.89,SW,215,3.0,5.0,67,0.00,,,0.00,weatherlink.com 1.10,2013-07-09 17:18:00,
2013-07-09 13:33:00,85.6,73.0,29.89,SW,233,3.0,6.0,65,0.00,,,0.00,weatherlink.com 1.10,2013-07-09 17:33:00,
2013-07-09 13:48:00,85.6,72.0,29.88,SW,224,0.0,8.0,63,0.00,,,0.00,weatherlink.com 1.10,2013-07-09 17:48:00,
2013-07-09 14:03:00,86.4,72.0,29.88,SW,232,0.0,7.0,62,0.00,,,0.00,weatherlink.com 1.10,2013-07-09 18:03:00,
2013-07-09 14:18:00,86.0,72.0,29.88,SSW,212,2.0,6.0,63,0.00,,,0.00,weatherlink.com 1.10,2013-07-09 18:18:00,
2013-07-09 14:33:00,85.8,72.0,29.87,SSW,205,3.0,5.0,63,0.00,,,0.00,weatherlink.com 1.10,2013-07-09 18:33:00,
2013-07-09 14:48:00,86.1,72.0,29.87,WSW,250,1.0,5.0,63,0.00,,,0.00,weatherlink.com 1.10,2013-07-09 18:48:00,
2013-07-09 15:03:00,86.9,71.0,29.86,SW,222,1.0,7.0,59,0.00,,,0.00,weatherlink.com 1.10,2013-07-09 19:03:00,
2013-07-09 15:18:00,86.7,71.0,29.85,SSW,207,1.0,6.0,59,0.00,,,0.00,weatherlink.com 1.10,2013-07-09 19:18:00,
2013-07-09 15:33:00,87.1,72.0,29.85,SW,228,2.0,7.0,61,0.00,,,0.00,weatherlink.com 1.10,2013-07-09 19:33:00,
2013-07-09 15:48:00,86.1,72.0,29.85,SW,219,0.0,5.0,63,0.00,,,0.00,weatherlink.com 1.10,2013-07-09 19:48:00,
2013-07-09 16:04:00,85.4,74.0,29.84,SSW,193,1.0,3.0,69,0.00,,,0.00,weatherlink.com 1.10,2013-07-09 20:04:00,
2013-07-09 16:19:00,85.4,73.0,29.84,SW,214,2.0,4.0,67,0.00,,,0.00,weatherlink.com 1.10,2013-07-09 20:19:00,
2013-07-09 16:34:00,81.3,75.0,29.83,West,281,0.0,6.0,81,0.02,,,0.02,weatherlink.com 1.10,2013-07-09 20:34:00,
2013-07-09 16:49:00,79.5,76.0,29.83,SW,233,0.0,1.0,88,0.02,,,0.02,weatherlink.com 1.10,2013-07-09 20:49:00,
2013-07-09 17:04:00,80.7,77.0,29.83,SW,233,0.0,0.0,88,0.02,,,0.02,weatherlink.com 1.10,2013-07-09 21:04:00,
2013-07-09 17:19:00,80.6,77.0,29.83,SW,217,0.0,1.0,89,0.07,,,0.07,weatherlink.com 1.10,2013-07-09 21:19:00,
2013-07-09 17:34:00,78.3,75.0,29.84,WSW,256,2.0,4.0,89,0.06,,,0.08,weatherlink.com 1.10,2013-07-09 21:34:00,
2013-07-09 17:49:00,74.3,72.0,29.84,WSW,246,0.0,4.0,93,0.26,,,0.28,weatherlink.com 1.10,2013-07-09 21:49:00,
2013-07-09 18:04:00,74.2,73.0,29.84,ESE,115,0.0,1.0,95,0.26,,,0.28,weatherlink.com 1.10,2013-07-09 22:04:00,
2013-07-09 18:19:00,74.3,73.0,29.83,NE,39,0.0,1.0,95,0.22,,,0.29,weatherlink.com 1.10,2013-07-09 22:19:00,
2013-07-09 18:34:00,74.9,73.0,29.83,ESE,108,0.0,0.0,94,0.21,,,0.29,weatherlink.com 1.10,2013-07-09 22:34:00,
2013-07-09 18:49:00,75.4,74.0,29.82,SE,127,0.0,0.0,94,0.01,,,0.29,weatherlink.com 1.10,2013-07-09 22:49:00,
2013-07-09 19:04:00,76.0,75.0,29.81,ESE,120,0.0,0.0,95,0.01,,,0.29,weatherlink.com 1.10,2013-07-09 23:04:00,
2013-07-09 19:19:00,75.5,74.0,29.81,ESE,121,0.0,0.0,94,0.00,,,0.29,weatherlink.com 1.10,2013-07-09 23:19:00,
2013-07-09 19:34:00,75.1,73.0,29.81,ESE,121,0.0,0.0,94,0.00,,,0.29,weatherlink.com 1.10,2013-07-09 23:34:00,
2013-07-09 19:49:00,74.8,73.0,29.81,ESE,121,0.0,0.0,95,0.00,,,0.29,weatherlink.com 1.10,2013-07-09 23:49:00,
2013-07-09 20:04:00,74.6,73.0,29.80,ESE,122,0.0,0.0,96,0.00,,,0.29,weatherlink.com 1.10,2013-07-10 00:04:00,
2013-07-09 20:19:00,74.5,73.0,29.80,ESE,121,0.0,0.0,96,0.00,,,0.29,weatherlink.com 1.10,2013-07-10 00:19:00,
2013-07-09 20:34:00,74.5,74.0,29.80,East,85,0.0,0.0,97,0.00,,,0.29,weatherlink.com 1.10,2013-07-10 00:34:00,
2013-07-09 20:49:00,74.7,74.0,29.80,East,85,0.0,0.0,97,0.00,,,0.29,weatherlink.com 1.10,2013-07-10 00:49:00,
2013-07-09 21:04:00,74.6,74.0,29.79,East,85,0.0,0.0,97,0.00,,,0.29,weatherlink.com 1.10,2013-07-10 01:04:00,
2013-07-09 21:19:00,74.2,73.0,29.80,East,101,0.0,0.0,97,0.00,,,0.29,weatherlink.com 1.10,2013-07-10 01:19:00,
2013-07-09 21:34:00,73.9,73.0,29.80,East,101,0.0,0.0,97,0.00,,,0.29,weatherlink.com 1.10,2013-07-10 01:34:00,
2013-07-09 21:49:00,73.7,73.0,29.80,ESE,115,0.0,0.0,98,0.00,,,0.29,weatherlink.com 1.10,2013-07-10 01:49:00,
2013-07-09 22:04:00,73.7,73.0,29.80,ESE,115,0.0,0.0,98,0.00,,,0.29,weatherlink.com 1.10,2013-07-10 02:04:00,
2013-07-09 22:19:00,73.6,73.0,29.80,SW,225,0.0,0.0,99,0.00,,,0.29,weatherlink.com 1.10,2013-07-10 02:19:00,
2013-07-09 22:34:00,73.7,73.0,29.80,SW,225,0.0,0.0,99,0.00,,,0.29,weatherlink.com 1.10,2013-07-10 02:34:00,
2013-07-09 22:49:00,73.5,73.0,29.80,SW,228,0.0,0.0,99,0.00,,,0.29,weatherlink.com 1.10,2013-07-10 02:49:00,
2013-07-09 23:04:00,73.3,73.0,29.80,SW,226,0.0,0.0,99,0.00,,,0.29,weatherlink.com 1.10,2013-07-10 03:04:00,
2013-07-09 23:19:00,73.0,73.0,29.80,SW,226,0.0,0.0,99,0.00,,,0.29,weatherlink.com 1.10,2013-07-10 03:19:00,
2013-07-09 23:34:00,72.7,72.0,29.80,SW,226,0.0,0.0,99,0.00,,,0.29,weatherlink.com 1.10,2013-07-10 03:34:00,
2013-07-09 23:49:00,72.6,72.0,29.80,SW,226,0.0,0.0,99,0.00,,,0.29,weatherlink.com 1.10,2013-07-10 03:49:00,